Time;durP1;ratioP1;P1;durP2;ratioP2;P2;SDS_P1;SDS_P2;PMS_P1;PMS_P2;Temp;Humidity;BMP_temperature;BMP_pressure;BME280_temperature;BME280_humidity;BME280_pressure;Samples;Min_cycle;Max_cycle;Signal;HPM_P1;HPM_P2
2022/12/03 00:00:38;;;;;;;0.50;0.50;;;;;;;8.87;100.00;100284.63;5145088;27;20602;-67
2022/12/03 00:03:05;;;;;;;0.70;0.70;;;;;;;8.88;100.00;100283.78;5142520;27;20201;-67
2022/12/03 00:05:32;;;;;;;0.50;0.50;;;;;;;8.86;100.00;100288.03;5136875;27;20700;-67
2022/12/03 00:08:00;;;;;;;0.50;0.50;;;;;;;8.70;100.00;100277.13;5142604;27;20190;-66
2022/12/03 00:10:27;;;;;;;0.80;0.80;;;;;;;8.64;100.00;100286.53;5140141;27;20191;-67
2022/12/03 00:12:54;;;;;;;0.40;0.40;;;;;;;8.58;100.00;100281.47;5138962;27;20201;-67
2022/12/03 00:15:21;;;;;;;0.50;0.50;;;;;;;8.52;100.00;100289.19;5144751;27;20261;-67
2022/12/03 00:17:47;;;;;;;0.70;0.70;;;;;;;8.50;100.00;100298.59;5139945;27;20624;-67
2022/12/03 00:20:21;;;;;;;0.70;0.70;;;;;;;8.56;100.00;100298.56;5136020;27;20939;-67
2022/12/03 00:22:49;;;;;;;0.90;0.90;;;;;;;8.58;100.00;100300.22;5143137;27;20189;-67
2022/12/03 00:25:17;;;;;;;0.60;0.60;;;;;;;8.62;100.00;100312.13;5141933;27;20190;-67
2022/12/03 00:27:44;;;;;;;0.50;0.50;;;;;;;8.63;100.00;100307.84;5138424;27;20214;-67
2022/12/03 00:30:12;;;;;;;0.40;0.40;;;;;;;8.72;100.00;100310.34;5142828;27;20208;-67
2022/12/03 00:32:39;;;;;;;2.07;1.97;;;;;;;8.64;100.00;100312.09;5141612;27;20633;-67
2022/12/03 00:35:06;;;;;;;0.70;0.70;;;;;;;8.64;100.00;100307.84;5135540;27;20251;-67
2022/12/03 00:37:34;;;;;;;0.73;0.73;;;;;;;8.63;100.00;100312.94;5146286;27;20201;-67
2022/12/03 00:40:01;;;;;;;0.50;0.50;;;;;;;8.60;100.00;100310.41;5140249;27;20202;-67
2022/12/03 00:42:29;;;;;;;0.40;0.40;;;;;;;8.71;100.00;100317.16;5139748;27;20213;-67
2022/12/03 00:44:55;;;;;;;0.50;0.50;;;;;;;8.76;100.00;100322.22;5144106;27;20200;-67
2022/12/03 00:47:22;;;;;;;0.60;0.60;;;;;;;8.73;100.00;100320.53;5151757;27;20653;-67
2022/12/03 00:49:49;;;;;;;0.60;0.60;;;;;;;8.74;100.00;100324.81;5146298;27;20198;-67
2022/12/03 00:52:16;;;;;;;0.50;0.50;;;;;;;8.66;100.00;100303.56;5147816;27;20192;-67
2022/12/03 00:54:43;;;;;;;0.50;0.50;;;;;;;8.59;100.00;100301.09;5147018;27;20191;-67
2022/12/03 00:57:09;;;;;;;0.50;0.50;;;;;;;8.57;100.00;100326.63;5144642;27;20726;-67
2022/12/03 00:59:37;;;;;;;0.60;0.60;;;;;;;8.58;100.00;100327.50;5142969;27;20198;-67
2022/12/03 01:02:04;;;;;;;0.70;0.70;;;;;;;8.60;100.00;100325.75;5144255;27;20214;-67
2022/12/03 01:04:32;;;;;;;0.50;0.50;;;;;;;8.57;100.00;100326.63;5140077;27;20294;-67
2022/12/03 01:06:59;;;;;;;0.57;0.57;;;;;;;8.59;100.00;100318.97;5149262;27;20665;-67
2022/12/03 01:09:26;;;;;;;0.70;0.70;;;;;;;8.52;100.00;100327.53;5143322;27;20197;-67
2022/12/03 01:11:52;;;;;;;0.70;0.70;;;;;;;8.49;100.00;100328.41;5141561;27;20749;-67
2022/12/03 01:14:20;;;;;;;0.50;0.50;;;;;;;8.57;100.00;100328.34;5142141;27;20263;-67
2022/12/03 01:16:48;;;;;;;0.40;0.40;;;;;;;8.50;100.00;100331.81;5143613;27;20190;-67
2022/12/03 01:19:16;;;;;;;0.60;0.60;;;;;;;8.48;100.00;100333.53;5144343;27;20194;-67
2022/12/03 01:21:45;;;;;;;0.50;0.50;;;;;;;8.54;100.00;100339.44;5142904;27;20221;-67
2022/12/03 01:24:12;;;;;;;0.50;0.50;;;;;;;8.58;100.00;100332.59;5140362;27;20202;-67
2022/12/03 01:26:39;;;;;;;0.53;0.53;;;;;;;8.57;100.00;100341.13;5145781;27;20194;-67
2022/12/03 01:29:06;;;;;;;0.83;0.83;;;;;;;8.59;100.00;100341.97;5144168;27;20189;-67
2022/12/03 01:34:18;;;;;;;0.60;0.60;;;;;;;8.63;100.00;100341.91;5142590;27;20203;-67
2022/12/03 01:36:45;;;;;;;0.50;0.50;;;;;;;8.65;100.00;100336.81;5144673;27;20261;-67
2022/12/03 01:39:11;;;;;;;0.50;0.50;;;;;;;8.58;100.00;100347.94;5146727;27;20205;-67
2022/12/03 01:41:39;;;;;;;0.53;0.53;;;;;;;8.26;100.00;100297.88;5144919;27;20265;-67
2022/12/03 01:44:15;;;;;;;0.57;0.57;;;;;;;8.60;100.00;100351.31;5140183;27;20201;-67
2022/12/03 01:46:42;;;;;;;0.50;0.50;;;;;;;8.60;100.00;100348.75;5132822;27;20198;-67
2022/12/03 01:49:15;;;;;;;1.17;1.17;;;;;;;8.67;100.00;100351.28;5146879;27;20189;-67
2022/12/03 01:51:43;;;;;;;0.50;0.50;;;;;;;8.60;100.00;100335.97;5142182;27;20194;-67
2022/12/03 01:54:16;;;;;;;0.60;0.60;;;;;;;8.68;100.00;100345.31;5140569;27;20202;-67
2022/12/03 01:56:44;;;;;;;0.50;0.50;;;;;;;8.66;100.00;100352.13;5139624;27;20584;-67
2022/12/03 01:59:15;;;;;;;0.50;0.50;;;;;;;8.63;100.00;100348.72;5144842;27;20209;-67
2022/12/03 02:01:42;;;;;;;0.70;0.70;;;;;;;8.59;100.00;100344.53;5146083;27;20700;-68
2022/12/03 02:04:12;;;;;;;0.53;0.53;;;;;;;8.60;100.00;100356.44;5145386;27;20244;-67
2022/12/03 02:06:39;;;;;;;0.50;0.50;;;;;;;8.63;100.00;100358.97;5137650;27;20205;-67
2022/12/03 02:09:10;;;;;;;0.90;0.90;;;;;;;8.64;100.00;100363.22;5136814;27;20217;-67
2022/12/03 02:11:42;;;;;;;0.60;0.60;;;;;;;8.52;100.00;100341.16;5140703;27;20189;-67
2022/12/03 02:14:12;;;;;;;0.60;0.60;;;;;;;8.59;100.00;100359.88;5146919;27;20684;-67
2022/12/03 02:16:40;;;;;;;0.60;0.60;;;;;;;8.60;100.00;100361.53;5146583;27;20661;-67
2022/12/03 02:19:16;;;;;;;0.50;0.50;;;;;;;8.54;100.00;100353.91;5140709;27;20198;-67
2022/12/03 02:21:50;;;;;;;0.50;0.50;;;;;;;8.59;100.00;100362.41;5142703;27;20638;-67
2022/12/03 02:24:25;;;;;;;0.70;0.70;;;;;;;8.54;100.00;100346.25;5141066;27;20245;-67
2022/12/03 02:26:53;;;;;;;0.40;0.40;;;;;;;8.61;100.00;100369.22;5148078;27;20194;-67
2022/12/03 02:29:20;;;;;;;0.50;0.50;;;;;;;8.53;100.00;100365.84;5146714;27;20229;-67
2022/12/03 02:31:47;;;;;;;0.50;0.50;;;;;;;8.57;100.00;100371.78;5134480;27;20653;-67
2022/12/03 02:34:35;;;;;;;0.40;0.40;;;;;;;8.63;100.00;100366.63;5140492;27;20194;-67
2022/12/03 02:37:04;;;;;;;0.67;0.67;;;;;;;8.67;100.00;100363.19;5135502;27;20202;-67
2022/12/03 02:39:32;;;;;;;0.43;0.43;;;;;;;8.53;100.00;100367.56;5133559;27;20193;-67
2022/12/03 02:44:45;;;;;;;0.50;0.50;;;;;;;8.39;100.00;100358.28;5134699;27;20794;-67
2022/12/03 02:47:12;;;;;;;0.50;0.50;;;;;;;8.37;100.00;100361.69;5135649;27;20197;-67
2022/12/03 02:49:39;;;;;;;0.57;0.57;;;;;;;8.32;100.00;100364.28;5145786;27;20194;-67
2022/12/03 02:52:06;;;;;;;0.50;0.50;;;;;;;8.27;100.00;100367.69;5137190;27;20271;-67
2022/12/03 02:54:33;;;;;;;0.70;0.70;;;;;;;8.13;100.00;100352.44;5145746;27;20197;-67
2022/12/03 02:57:01;;;;;;;0.97;0.97;;;;;;;8.15;100.00;100358.38;5142231;27;20580;-67
2022/12/03 02:59:28;;;;;;;0.50;0.50;;;;;;;8.12;100.00;100348.19;5151031;27;20198;-67
2022/12/03 03:01:55;;;;;;;0.43;0.43;;;;;;;8.07;100.00;100339.69;5147323;27;20615;-67
2022/12/03 03:04:23;;;;;;;0.53;0.53;;;;;;;8.06;100.00;100353.31;5146596;27;20213;-67
2022/12/03 03:06:51;;;;;;;0.67;0.67;;;;;;;7.93;100.00;100347.41;5130719;27;20201;-66
2022/12/03 03:09:18;;;;;;;0.43;0.43;;;;;;;7.96;100.00;100338.91;5143989;27;20197;-66
2022/12/03 03:11:44;;;;;;;0.50;0.50;;;;;;;7.95;100.00;100347.41;5144448;27;20197;-67
2022/12/03 03:14:13;;;;;;;0.80;0.80;;;;;;;7.84;100.00;100337.25;5147019;27;20197;-66
2022/12/03 03:16:40;;;;;;;0.50;0.50;;;;;;;7.76;100.00;100345.78;5151845;27;20610;-67
2022/12/03 03:19:07;;;;;;;0.40;0.40;;;;;;;7.80;100.00;100347.47;5134956;27;20197;-66
2022/12/03 03:21:34;;;;;;;0.40;0.40;;;;;;;7.83;100.00;100352.56;5140743;27;20697;-67
2022/12/03 03:24:00;;;;;;;0.50;0.50;;;;;;;7.88;100.00;100353.41;5143136;27;20609;-67
2022/12/03 03:26:27;;;;;;;0.60;0.60;;;;;;;7.92;100.00;100360.19;5130840;27;20210;-67
2022/12/03 03:28:54;;;;;;;0.60;0.60;;;;;;;7.89;100.00;100360.19;5147277;27;20589;-67
2022/12/03 03:31:23;;;;;;;0.40;0.40;;;;;;;7.76;100.00;100338.13;5142696;27;20186;-67
2022/12/03 03:33:51;;;;;;;0.50;0.50;;;;;;;7.89;100.00;100362.75;5138086;27;20201;-67
2022/12/03 03:36:19;;;;;;;0.50;0.50;;;;;;;7.86;100.00;100350.00;5147162;27;20185;-66
2022/12/03 03:38:47;;;;;;;0.63;0.63;;;;;;;7.83;100.00;100361.06;5144924;27;20193;-67
2022/12/03 03:41:15;;;;;;;0.50;0.50;;;;;;;7.85;100.00;100359.34;5145640;27;20692;-67
2022/12/03 03:43:43;;;;;;;0.40;0.40;;;;;;;7.81;100.00;100351.72;5146989;27;20682;-66
2022/12/03 03:46:11;;;;;;;0.50;0.50;;;;;;;7.83;100.00;100380.66;5148180;27;20212;-67
2022/12/03 03:48:41;;;;;;;0.50;0.50;;;;;;;7.85;100.00;100376.41;5136692;27;20198;-67
2022/12/03 03:51:09;;;;;;;0.90;0.90;;;;;;;7.88;100.00;100378.94;5135280;27;20193;-67
2022/12/03 03:53:38;;;;;;;0.50;0.50;;;;;;;7.78;100.00;100383.22;5149279;27;20201;-67
2022/12/03 03:56:06;;;;;;;0.73;0.73;;;;;;;7.76;100.00;100384.91;5143647;27;20281;-67
2022/12/03 03:58:33;;;;;;;0.50;0.50;;;;;;;7.77;100.00;100389.19;5145848;27;20744;-67
2022/12/03 04:01:01;;;;;;;0.53;0.53;;;;;;;7.75;100.00;100390.03;5137500;27;20200;-66
2022/12/03 04:03:27;;;;;;;0.50;0.50;;;;;;;7.77;100.00;100391.72;5142837;27;20197;-67
2022/12/03 04:05:56;;;;;;;0.93;0.93;;;;;;;7.80;100.00;100388.31;5140080;27;20194;-67
2022/12/03 04:08:23;;;;;;;0.60;0.60;;;;;;;7.81;100.00;100390.03;5134977;27;20194;-67
2022/12/03 04:13:34;;;;;;;0.50;0.50;;;;;;;7.81;100.00;100395.97;5137301;27;20242;-67
2022/12/03 04:16:01;;;;;;;0.63;0.63;;;;;;;7.85;100.00;100395.09;5143787;27;20197;-67
2022/12/03 04:18:42;;;;;;;0.63;0.63;;;;;;;7.88;100.00;100400.19;5143974;27;20186;-67
2022/12/03 04:23:55;;;;;;;0.50;0.50;;;;;;;7.79;100.00;100399.38;5143775;27;20761;-67
2022/12/03 04:29:06;;;;;;;0.70;0.70;;;;;;;7.72;100.00;100402.81;5145391;27;20197;-67
2022/12/03 04:37:03;;;;;;;0.50;0.50;;;;;;;7.69;100.00;100407.94;5149074;27;20204;-67
2022/12/03 04:39:30;;;;;;;0.60;0.60;;;;;;;7.74;100.00;100411.31;5139876;27;20229;-67
2022/12/03 04:41:57;;;;;;;0.50;0.50;;;;;;;7.70;100.00;100409.59;5153558;27;20228;-66
2022/12/03 04:44:36;;;;;;;0.60;0.60;;;;;;;7.64;100.00;100410.47;5146702;27;20200;-66
2022/12/03 04:47:06;;;;;;;0.40;0.40;;;;;;;7.52;100.00;100390.09;5136105;27;20258;-66
2022/12/03 04:49:34;;;;;;;0.50;0.50;;;;;;;7.67;100.00;100414.72;5148931;27;20200;-67
2022/12/03 04:52:00;;;;;;;0.60;0.60;;;;;;;7.64;100.00;100407.06;5148738;27;20194;-67
2022/12/03 04:54:29;;;;;;;0.50;0.50;;;;;;;7.62;100.00;100416.44;5145521;27;20201;-66
2022/12/03 04:56:56;;;;;;;0.40;0.40;;;;;;;7.67;100.00;100409.63;5143741;27;20206;-67
2022/12/03 04:59:22;;;;;;;0.50;0.50;;;;;;;7.60;100.00;100413.03;5147589;27;20197;-67
2022/12/03 05:01:49;;;;;;;0.47;0.47;;;;;;;7.62;100.00;100411.34;5155493;27;20766;-67
2022/12/03 05:04:16;;;;;;;0.40;0.40;;;;;;;7.64;100.00;100415.59;5153727;27;20228;-66
2022/12/03 05:06:43;;;;;;;1.03;1.03;;;;;;;7.66;100.00;100413.00;5146298;27;20202;-66
2022/12/03 05:09:10;;;;;;;1.10;1.10;;;;;;;7.63;100.00;100407.91;5144200;27;20194;-67
2022/12/03 05:11:39;;;;;;;0.53;0.53;;;;;;;7.60;100.00;100402.81;5144192;27;20201;-67
2022/12/03 05:14:06;;;;;;;0.57;0.57;;;;;;;7.71;100.00;100418.97;5146812;27;20293;-67
2022/12/03 05:16:33;;;;;;;0.43;0.43;;;;;;;7.72;100.00;100423.22;5131889;27;20201;-67
2022/12/03 05:19:00;;;;;;;0.93;0.93;;;;;;;7.77;100.00;100427.47;5127756;27;20619;-67
2022/12/03 05:21:27;;;;;;;0.60;0.60;;;;;;;7.73;100.00;100435.13;5131932;27;20601;-66
2022/12/03 05:23:54;;;;;;;0.60;0.60;;;;;;;7.75;100.00;100436.00;5132622;27;20198;-67
2022/12/03 05:26:21;;;;;;;0.63;0.63;;;;;;;7.76;100.00;100440.22;5126361;27;20256;-67
2022/12/03 05:28:49;;;;;;;1.00;1.00;;;;;;;7.71;100.00;100426.63;5136339;27;20229;-67
2022/12/03 05:31:17;;;;;;;0.67;0.67;;;;;;;7.75;100.00;100443.66;5132691;27;20206;-67
2022/12/03 05:33:44;;;;;;;0.80;0.80;;;;;;;7.78;100.00;100438.53;5149944;27;20197;-67
2022/12/03 05:36:10;;;;;;;0.50;0.50;;;;;;;7.85;100.00;100446.16;5139769;27;20266;-67
2022/12/03 05:38:37;;;;;;;0.60;0.60;;;;;;;7.86;100.00;100441.91;5144131;27;20200;-67
2022/12/03 05:42:52;;;;;;;0.60;0.60;;;;;;;7.70;100.00;100435.97;5147024;27;20197;-67
2022/12/03 05:43:51;;;;;;;0.57;0.57;;;;;;;7.86;100.00;100449.56;5141218;27;20200;-66
2022/12/03 05:46:18;;;;;;;0.50;0.50;;;;;;;7.89;100.00;100447.84;5146309;27;20747;-67
2022/12/03 05:48:45;;;;;;;0.50;0.50;;;;;;;7.92;100.00;100452.94;5150624;27;20189;-67
2022/12/03 05:51:12;;;;;;;0.60;0.60;;;;;;;7.98;100.00;100452.06;5145867;27;20194;-67
2022/12/03 05:53:39;;;;;;;0.60;0.60;;;;;;;7.90;100.00;100456.38;5142492;27;20186;-67
2022/12/03 05:56:06;;;;;;;1.20;1.20;;;;;;;7.86;100.00;100454.66;5135044;27;20569;-67
2022/12/03 05:58:33;;;;;;;0.90;0.90;;;;;;;7.86;100.00;100455.53;5136610;27;20280;-67
2022/12/03 06:01:01;;;;;;;0.87;0.87;;;;;;;7.89;100.00;100465.72;5145209;27;20197;-66
2022/12/03 06:03:28;;;;;;;0.83;0.83;;;;;;;7.88;100.00;100460.63;5139967;27;20593;-66
2022/12/03 06:05:54;;;;;;;0.90;0.90;;;;;;;7.84;100.00;100462.34;5138672;27;20198;-67
2022/12/03 06:08:21;;;;;;;0.90;0.90;;;;;;;7.82;100.00;100465.72;5138646;27;20703;-66
2022/12/03 06:10:48;;;;;;;1.90;0.90;;;;;;;7.75;100.00;100474.28;5139271;27;20198;-67
2022/12/03 06:13:16;;;;;;;0.50;0.50;;;;;;;7.75;100.00;100477.69;5143141;27;20202;-67
2022/12/03 06:15:43;;;;;;;0.70;0.70;;;;;;;7.77;100.00;100483.63;5145912;27;20653;-67
2022/12/03 06:18:11;;;;;;;0.60;0.60;;;;;;;7.78;100.00;100476.81;5146624;27;20194;-67
2022/12/03 06:20:37;;;;;;;0.97;0.97;;;;;;;7.77;100.00;100480.22;5141280;27;20251;-67
2022/12/03 06:23:04;;;;;;;0.83;0.83;;;;;;;7.74;100.00;100478.53;5134439;27;20210;-66
2022/12/03 06:25:31;;;;;;;0.60;0.60;;;;;;;7.76;100.00;100483.59;5140837;27;20215;-66
2022/12/03 06:27:58;;;;;;;0.50;0.50;;;;;;;7.71;100.00;100467.47;5132678;27;20198;-67
2022/12/03 06:30:25;;;;;;;0.80;0.80;;;;;;;7.75;100.00;100487.03;5147613;27;20254;-67
2022/12/03 06:32:51;;;;;;;0.60;0.60;;;;;;;7.79;100.00;100481.91;5136089;27;20194;-67
2022/12/03 06:35:20;;;;;;;0.50;0.50;;;;;;;7.76;100.00;100483.59;5148127;27;20251;-67
2022/12/03 06:37:46;;;;;;;0.93;0.93;;;;;;;7.79;100.00;100478.50;5139219;27;20198;-66
2022/12/03 06:40:15;;;;;;;0.50;0.50;;;;;;;7.85;100.00;100488.72;5143436;27;20198;-67
2022/12/03 06:42:43;;;;;;;0.63;0.63;;;;;;;7.86;100.00;100477.63;5141615;27;20216;-67
2022/12/03 06:45:10;;;;;;;0.70;0.70;;;;;;;7.82;100.00;100481.03;5137587;27;20205;-67
2022/12/03 06:47:37;;;;;;;0.57;0.57;;;;;;;7.83;100.00;100480.19;5134317;27;20201;-67
2022/12/03 06:50:06;;;;;;;0.70;0.70;;;;;;;7.80;100.00;100485.31;5135875;27;20194;-66
2022/12/03 06:52:34;;;;;;;0.60;0.60;;;;;;;7.84;100.00;100482.75;5143729;27;20185;-66
2022/12/03 06:55:01;;;;;;;0.50;0.50;;;;;;;7.79;100.00;100492.13;5133680;27;20197;-66
2022/12/03 06:57:28;;;;;;;0.57;0.57;;;;;;;7.81;100.00;100499.78;5139848;27;20198;-67
2022/12/03 06:59:54;;;;;;;0.70;0.70;;;;;;;7.85;100.00;100506.59;5133182;27;20209;-67
2022/12/03 07:02:21;;;;;;;0.50;0.50;;;;;;;7.86;100.00;100503.16;5142364;27;20220;-67
2022/12/03 07:04:48;;;;;;;0.50;0.50;;;;;;;7.88;100.00;100497.19;5140314;27;20604;-67
2022/12/03 07:07:15;;;;;;;0.60;0.60;;;;;;;7.92;100.00;100498.03;5138108;27;20205;-67
2022/12/03 07:09:43;;;;;;;0.63;0.63;;;;;;;7.89;100.00;100501.47;5136733;27;20202;-67
2022/12/03 07:12:10;;;;;;;0.50;0.50;;;;;;;7.91;100.00;100496.38;5143704;27;20246;-67
2022/12/03 07:14:37;;;;;;;0.60;0.60;;;;;;;7.93;100.00;100492.09;5140554;27;20197;-67
2022/12/03 07:17:04;;;;;;;0.60;0.60;;;;;;;7.89;100.00;100492.94;5143970;27;20219;-67
2022/12/03 07:19:30;;;;;;;0.53;0.53;;;;;;;7.88;100.00;100501.47;5141856;27;20249;-67
2022/12/03 07:21:57;;;;;;;0.60;0.60;;;;;;;7.99;100.00;100499.75;5138607;27;20244;-67
2022/12/03 07:24:24;;;;;;;0.70;0.70;;;;;;;7.96;100.00;100498.91;5141427;27;20245;-66
2022/12/03 07:26:52;;;;;;;0.40;0.40;;;;;;;7.94;100.00;100498.91;5138872;27;20201;-67
2022/12/03 07:29:19;;;;;;;0.57;0.57;;;;;;;7.97;100.00;100506.56;5143746;27;20209;-67
2022/12/03 07:31:46;;;;;;;0.50;0.50;;;;;;;7.85;100.00;100491.28;5141227;27;20665;-66
2022/12/03 07:34:13;;;;;;;0.70;0.70;;;;;;;8.00;100.00;100510.81;5140492;27;20196;-66
2022/12/03 07:36:40;;;;;;;0.50;0.50;;;;;;;7.99;100.00;100512.50;5131229;27;20198;-67
2022/12/03 07:39:06;;;;;;;0.50;0.50;;;;;;;8.05;100.00;100511.63;5142270;27;20435;-69
2022/12/03 07:41:33;;;;;;;0.70;0.70;;;;;;;8.06;100.00;100516.75;5142365;27;20298;-65
2022/12/03 07:44:01;;;;;;;0.80;0.80;;;;;;;8.15;100.00;100516.72;5138981;27;20573;-65
2022/12/03 07:46:28;;;;;;;1.27;1.27;;;;;;;8.20;100.00;100512.47;5134738;27;20554;-65
2022/12/03 07:48:55;;;;;;;1.83;1.73;;;;;;;8.17;100.00;100509.06;5139458;27;20206;-65
2022/12/03 07:51:22;;;;;;;0.50;0.50;;;;;;;8.17;100.00;100509.94;5146683;27;20201;-65
2022/12/03 07:53:49;;;;;;;0.50;0.50;;;;;;;8.22;100.00;100518.41;5149776;27;20731;-66
2022/12/03 07:56:15;;;;;;;0.57;0.57;;;;;;;8.30;100.00;100514.16;5143381;27;20688;-66
2022/12/03 07:58:42;;;;;;;0.93;0.93;;;;;;;8.27;100.00;100516.69;5144692;27;20194;-66
2022/12/03 08:01:11;;;;;;;0.60;0.60;;;;;;;8.26;100.00;100515.00;5140182;27;20320;-66
2022/12/03 08:03:38;;;;;;;0.60;0.60;;;;;;;8.25;100.00;100517.56;5132338;27;20218;-65
2022/12/03 08:06:05;;;;;;;0.53;0.53;;;;;;;8.21;100.00;100503.94;5139109;27;20190;-65
2022/12/03 08:08:32;;;;;;;0.60;0.60;;;;;;;8.34;100.00;100518.41;5145533;27;20196;-66
2022/12/03 08:10:59;;;;;;;0.50;0.50;;;;;;;8.35;100.00;100522.66;5143070;27;20193;-66
2022/12/03 08:13:27;;;;;;;0.70;0.70;;;;;;;8.40;100.00;100518.38;5144919;27;20201;-65
2022/12/03 08:15:56;;;;;;;0.70;0.70;;;;;;;8.55;100.00;100521.75;5144659;27;20204;-66
2022/12/03 08:18:24;;;;;;;0.60;0.60;;;;;;;8.60;100.00;100525.13;5152361;27;20212;-66
2022/12/03 08:20:52;;;;;;;0.50;0.50;;;;;;;8.58;100.00;100527.69;5151069;27;20270;-66
2022/12/03 08:23:21;;;;;;;0.50;0.50;;;;;;;8.63;100.00;100530.22;5131724;27;20220;-65
2022/12/03 08:25:49;;;;;;;0.67;0.67;;;;;;;8.71;100.00;100526.78;5131095;27;20197;-66
2022/12/03 08:28:18;;;;;;;0.57;0.57;;;;;;;8.74;100.00;100519.09;5147470;27;20576;-65
2022/12/03 08:30:50;;;;;;;0.70;0.70;;;;;;;8.73;100.00;100522.50;5138240;27;20691;-65
2022/12/03 08:33:21;;;;;;;1.03;0.80;;;;;;;8.75;100.00;100530.19;5147316;27;20193;-66
2022/12/03 08:35:50;;;;;;;0.50;0.50;;;;;;;8.71;100.00;100508.03;5145441;27;20227;-66
2022/12/03 08:38:20;;;;;;;0.53;0.53;;;;;;;8.80;100.00;100524.19;5139144;27;20288;-65
2022/12/03 08:40:49;;;;;;;0.60;0.60;;;;;;;8.86;100.00;100525.84;5139445;27;20198;-65
2022/12/03 08:43:20;;;;;;;0.60;0.60;;;;;;;8.81;100.00;100515.66;5131039;27;20210;-66
2022/12/03 08:45:49;;;;;;;0.60;0.60;;;;;;;8.84;100.00;100504.56;5137434;27;20201;-65
2022/12/03 08:48:26;;;;;;;0.83;0.83;;;;;;;8.98;100.00;100522.38;5151983;27;20205;-66
2022/12/03 08:50:56;;;;;;;0.60;0.60;;;;;;;9.00;100.00;100526.63;5142429;27;20216;-65
2022/12/03 08:53:35;;;;;;;0.50;0.50;;;;;;;9.07;100.00;100523.19;5141026;27;20614;-66
2022/12/03 08:56:04;;;;;;;0.60;0.60;;;;;;;9.14;100.00;100524.00;5131657;27;20197;-66
2022/12/03 08:58:41;;;;;;;0.70;0.70;;;;;;;9.07;100.00;100517.22;5145890;27;20207;-66
2022/12/03 09:01:38;;;;;;;0.50;0.50;;;;;;;9.18;100.00;100515.41;5151940;27;20220;-66
2022/12/03 09:04:19;;;;;;;0.50;0.50;;;;;;;9.19;100.00;100512.00;5122615;27;20237;-65
2022/12/03 09:06:48;;;;;;;0.60;0.60;;;;;;;9.22;100.00;100510.28;5141577;27;20205;-65
2022/12/03 09:09:14;;;;;;;3.13;1.20;;;;;;;9.27;100.00;100512.81;5137946;27;20201;-66
2022/12/03 09:11:43;;;;;;;0.60;0.60;;;;;;;9.12;100.00;100508.63;5153487;27;20193;-66
2022/12/03 09:14:10;;;;;;;1.27;0.70;;;;;;;9.19;100.00;100505.19;5138458;27;20637;-66
2022/12/03 09:16:37;;;;;;;0.73;0.73;;;;;;;9.31;100.00;100502.53;5142242;27;20202;-66
2022/12/03 09:19:05;;;;;;;0.53;0.53;;;;;;;9.30;100.00;100500.84;5142006;27;20201;-66
2022/12/03 09:21:31;;;;;;;0.93;0.93;;;;;;;9.33;100.00;100499.97;5136227;27;20664;-66
2022/12/03 09:24:00;;;;;;;0.60;0.60;;;;;;;9.35;100.00;100504.22;5139721;27;20214;-65
2022/12/03 09:26:27;;;;;;;0.70;0.70;;;;;;;9.47;100.00;100504.13;5133321;27;20194;-66
2022/12/03 09:28:54;;;;;;;0.40;0.40;;;;;;;9.40;100.00;100491.41;5134724;27;20573;-66
2022/12/03 09:31:20;;;;;;;0.37;0.37;;;;;;;9.55;100.00;100492.97;5151298;27;20205;-66
2022/12/03 09:33:47;;;;;;;0.50;0.50;;;;;;;9.57;100.00;100494.66;5137374;27;20189;-66
2022/12/03 09:36:14;;;;;;;0.63;0.63;;;;;;;9.65;100.00;100498.00;5151767;27;20197;-66
2022/12/03 09:38:41;;;;;;;0.70;0.70;;;;;;;9.49;100.00;100496.44;5146995;27;20288;-66
2022/12/03 09:41:09;;;;;;;0.50;0.50;;;;;;;9.46;100.00;100489.63;5152349;27;20688;-65
2022/12/03 09:43:36;;;;;;;0.50;0.50;;;;;;;9.57;100.00;100494.66;5147679;27;20589;-65
2022/12/03 09:46:04;;;;;;;0.60;0.60;;;;;;;9.61;100.00;100490.34;5147616;27;20573;-66
2022/12/03 09:48:31;;;;;;;1.53;1.47;;;;;;;9.59;100.00;100486.97;5134196;27;20258;-66
2022/12/03 09:50:58;;;;;;;0.60;0.60;;;;;;;9.67;100.00;100487.72;5150008;27;20198;-66
2022/12/03 09:53:27;;;;;;;0.50;0.50;;;;;;;9.71;100.00;100486.84;5151673;27;20200;-66
2022/12/03 09:55:57;;;;;;;0.67;0.67;;;;;;;9.79;100.00;100482.50;5135289;27;20198;-65
2022/12/03 09:58:28;;;;;;;0.70;0.70;;;;;;;9.82;100.00;100480.75;5151197;27;20189;-66
2022/12/03 10:00:56;;;;;;;0.70;0.70;;;;;;;9.70;100.00;100470.63;5133702;27;20202;-66
2022/12/03 10:03:25;;;;;;;0.80;0.80;;;;;;;9.89;100.00;100481.53;5136699;27;20210;-65
2022/12/03 10:05:54;;;;;;;1.63;0.83;;;;;;;9.89;100.00;100481.53;5133182;27;20198;-66
2022/12/03 10:08:23;;;;;;;0.50;0.50;;;;;;;9.92;100.00;100484.06;5135717;27;20232;-66
2022/12/03 10:10:55;;;;;;;0.60;0.60;;;;;;;9.99;100.00;100483.13;5145230;27;20645;-65
2022/12/03 10:13:25;;;;;;;0.50;0.50;;;;;;;9.98;100.00;100486.59;5133534;27;20610;-66
2022/12/03 10:15:56;;;;;;;0.53;0.53;;;;;;;9.97;100.00;100485.72;5133408;27;20217;-66
2022/12/03 10:18:25;;;;;;;0.50;0.50;;;;;;;10.02;100.00;100477.97;5143392;27;20197;-66
2022/12/03 10:20:52;;;;;;;0.60;0.60;;;;;;;9.92;100.00;100476.38;5139462;27;20569;-66
2022/12/03 10:23:24;;;;;;;1.23;1.23;;;;;;;10.06;100.00;100469.41;5129364;27;20213;-66
2022/12/03 10:25:56;;;;;;;0.50;0.50;;;;;;;10.15;100.00;100469.34;5140911;27;20213;-66
2022/12/03 10:28:34;;;;;;;0.60;0.60;;;;;;;10.13;100.00;100471.03;5137635;27;20205;-66
2022/12/03 10:31:04;;;;;;;0.50;0.50;;;;;;;10.18;100.00;100461.59;5136405;27;20194;-66
2022/12/03 10:33:35;;;;;;;0.77;0.77;;;;;;;10.15;100.00;100464.22;5145683;27;20656;-66
2022/12/03 10:36:19;;;;;;;0.43;0.43;;;;;;;10.17;100.00;100462.50;5137654;27;20202;-66
2022/12/03 10:38:46;;;;;;;0.60;0.60;;;;;;;10.13;100.00;100459.94;5141005;27;20197;-66
2022/12/03 10:41:25;;;;;;;0.43;0.43;;;;;;;10.16;100.00;100468.47;5141716;27;20204;-66
2022/12/03 10:43:52;;;;;;;0.57;0.57;;;;;;;10.13;100.00;100458.22;5141416;27;20219;-66
2022/12/03 10:46:21;;;;;;;0.50;0.50;;;;;;;10.12;100.00;100456.53;5145995;27;20239;-66
2022/12/03 10:49:10;;;;;;;0.47;0.47;;;;;;;10.04;100.00;100468.59;5132544;27;20243;-65
2022/12/03 10:51:39;;;;;;;0.60;0.60;;;;;;;10.03;100.00;100464.31;5136264;27;20201;-66
2022/12/03 10:54:15;;;;;;;0.80;0.80;;;;;;;10.01;100.00;100460.94;5144349;27;20281;-65
2022/12/03 10:56:42;;;;;;;0.47;0.47;;;;;;;10.07;100.00;100467.69;5145933;27;20710;-66
2022/12/03 10:59:13;;;;;;;0.90;0.90;;;;;;;10.05;100.00;100459.19;5133644;27;20206;-65
2022/12/03 11:01:42;;;;;;;0.47;0.47;;;;;;;9.95;100.00;100463.56;5139906;27;20205;-66
2022/12/03 11:04:19;;;;;;;1.00;0.90;;;;;;;10.00;100.00;100459.22;5141944;27;20221;-66
2022/12/03 11:06:46;;;;;;;1.10;1.10;;;;;;;9.97;100.00;100455.00;5146305;27;20637;-66
2022/12/03 11:09:18;;;;;;;0.77;0.77;;;;;;;9.93;100.00;100457.59;5150063;27;20202;-65
2022/12/03 11:12:04;;;;;;;0.60;0.60;;;;;;;9.92;100.00;100450.75;5086438;27;20293;-66
2022/12/03 11:15:05;;;;;;;0.70;0.70;;;;;;;9.98;100.00;100450.72;5152028;27;20201;-65
2022/12/03 11:17:51;;;;;;;0.50;0.50;;;;;;;9.89;100.00;100440.56;5139535;27;20198;-66
2022/12/03 11:20:51;;;;;;;0.70;0.70;;;;;;;9.82;100.00;100433.81;5145297;27;20197;-66
2022/12/03 11:23:57;;;;;;;0.50;0.50;;;;;;;9.94;100.00;100454.19;5132556;27;20202;-66
2022/12/03 11:27:02;;;;;;;0.80;0.80;;;;;;;9.88;100.00;100449.13;5147816;27;20216;-66
2022/12/03 11:30:02;;;;;;;1.20;1.20;;;;;;;9.77;100.00;100450.94;5118608;27;20208;-65
2022/12/03 11:33:06;;;;;;;0.53;0.53;;;;;;;9.84;100.00;100456.00;5101146;28;20284;-66
2022/12/03 11:35:53;;;;;;;0.70;0.70;;;;;;;9.89;100.00;100453.38;5106619;28;20198;-65
2022/12/03 11:38:55;;;;;;;0.70;0.70;;;;;;;9.83;100.00;100456.84;5134570;27;20194;-65
2022/12/03 11:41:28;;;;;;;0.73;0.73;;;;;;;9.85;100.00;100459.41;5131889;27;20197;-65
2022/12/03 11:44:14;;;;;;;1.07;1.07;;;;;;;9.78;100.00;100457.75;5143128;27;20213;-66
2022/12/03 11:46:44;;;;;;;0.50;0.50;;;;;;;9.70;100.00;100460.38;5140101;27;20198;-66
2022/12/03 11:49:28;;;;;;;0.50;0.50;;;;;;;9.68;100.00;100435.66;5131908;27;20208;-65
2022/12/03 11:51:57;;;;;;;0.60;0.60;;;;;;;9.82;100.00;100449.19;5131100;27;20722;-66
2022/12/03 11:54:24;;;;;;;0.50;0.50;;;;;;;9.55;100.00;100413.63;5150187;27;20217;-65